Time;durP1;ratioP1;P1;durP2;ratioP2;P2;SDS_P1;SDS_P2;PMS_P1;PMS_P2;Temp;Humidity;BMP_temperature;BMP_pressure;BME280_temperature;BME280_humidity;BME280_pressure;Samples;Min_cycle;Max_cycle;Signal;HPM_P1;HPM_P2
2021/06/30 00:02:25;;;;;;;21.35;11.60;;;16.00;99.90;;;;;;5080664;28;20513;-64
2021/06/30 00:04:52;;;;;;;18.08;11.13;;;16.00;99.90;;;;;;5078019;28;20052;-64
2021/06/30 00:07:19;;;;;;;22.67;12.60;;;16.00;99.90;;;;;;5079947;28;20437;-64
2021/06/30 00:09:45;;;;;;;25.27;13.27;;;15.90;99.90;;;;;;5085857;28;20089;-64
2021/06/30 00:12:11;;;;;;;20.45;12.18;;;15.90;99.90;;;;;;5096464;28;20509;-64
2021/06/30 00:14:37;;;;;;;17.00;11.88;;;15.90;99.90;;;;;;5078684;28;20036;-64
2021/06/30 00:17:04;;;;;;;24.00;12.90;;;15.90;99.90;;;;;;5077982;28;20040;-64
2021/06/30 00:19:30;;;;;;;18.70;11.25;;;15.90;99.90;;;;;;5077546;28;20051;-64
2021/06/30 00:21:56;;;;;;;17.05;11.05;;;15.80;99.90;;;;;;5078637;28;20394;-64
2021/06/30 00:24:21;;;;;;;18.17;10.90;;;15.90;99.90;;;;;;5075995;28;20044;-64
2021/06/30 00:26:47;;;;;;;17.65;11.27;;;15.80;99.90;;;;;;5077409;28;20130;-64
2021/06/30 00:29:13;;;;;;;15.55;11.50;;;15.90;99.90;;;;;;5078025;28;20040;-64
2021/06/30 00:31:39;;;;;;;15.13;10.50;;;15.90;99.90;;;;;;5077177;28;20094;-64
2021/06/30 00:34:05;;;;;;;13.02;10.25;;;15.90;99.90;;;;;;5079454;28;20118;-64
2021/06/30 00:36:33;;;;;;;18.17;11.32;;;15.90;99.90;;;;;;5079739;28;20048;-64
2021/06/30 00:39:00;;;;;;;14.85;11.02;;;15.90;99.90;;;;;;5075987;28;20471;-64
2021/06/30 00:41:26;;;;;;;18.55;12.48;;;15.90;99.90;;;;;;5080796;28;20486;-64
2021/06/30 00:43:52;;;;;;;19.38;12.82;;;15.90;99.90;;;;;;5076854;28;20044;-64
2021/06/30 00:46:32;;;;;;;15.68;11.60;;;15.90;99.90;;;;;;5080834;28;20036;-64
2021/06/30 00:48:58;;;;;;;22.20;12.43;;;15.90;99.90;;;;;;5077416;28;20491;-64
2021/06/30 00:51:25;;;;;;;16.35;11.90;;;15.90;99.90;;;;;;5078683;28;20040;-64
2021/06/30 00:53:52;;;;;;;15.40;10.55;;;15.90;99.90;;;;;;5078143;28;20113;-64
2021/06/30 00:56:24;;;;;;;17.48;11.43;;;15.90;99.90;;;;;;5079576;28;20051;-64
2021/06/30 00:58:58;;;;;;;24.17;15.45;;;15.90;99.90;;;;;;5078508;28;20040;-64
2021/06/30 01:01:24;;;;;;;22.08;14.07;;;15.90;99.90;;;;;;5078533;28;20394;-64
2021/06/30 01:03:51;;;;;;;22.50;13.32;;;15.80;99.90;;;;;;5078211;28;20040;-64
2021/06/30 01:06:17;;;;;;;27.60;14.90;;;15.80;99.90;;;;;;5076165;28;20112;-64
2021/06/30 01:08:44;;;;;;;22.88;12.95;;;15.80;99.90;;;;;;5080527;28;20040;-64
2021/06/30 01:11:11;;;;;;;18.42;11.90;;;15.70;99.90;;;;;;5076321;28;20641;-64
2021/06/30 01:13:38;;;;;;;19.65;11.82;;;15.70;99.90;;;;;;5075868;28;20043;-64
2021/06/30 01:16:04;;;;;;;15.35;11.38;;;15.80;99.90;;;;;;5078545;28;20040;-64
2021/06/30 01:18:31;;;;;;;17.73;11.35;;;15.80;99.90;;;;;;5079694;28;20930;-64
2021/06/30 01:20:59;;;;;;;22.90;11.93;;;15.80;99.90;;;;;;5080507;28;20115;-64
2021/06/30 01:23:25;;;;;;;16.88;10.55;;;15.80;99.90;;;;;;5080237;28;20551;-64
2021/06/30 01:25:52;;;;;;;19.35;11.57;;;15.80;99.90;;;;;;5083956;28;20039;-64
2021/06/30 01:28:19;;;;;;;18.70;10.00;;;15.80;99.90;;;;;;5083517;28;20455;-64
2021/06/30 01:30:49;;;;;;;23.85;10.93;;;15.80;99.90;;;;;;5081119;28;20489;-64
2021/06/30 01:33:15;;;;;;;26.70;12.02;;;15.80;99.90;;;;;;5081874;28;20248;-64
2021/06/30 01:35:41;;;;;;;22.17;11.45;;;15.80;99.90;;;;;;5081510;28;20028;-64
2021/06/30 01:38:07;;;;;;;20.67;13.45;;;15.80;99.90;;;;;;5082381;28;20059;-64
2021/06/30 01:40:33;;;;;;;24.52;12.68;;;15.80;99.90;;;;;;5084141;28;20474;-64
2021/06/30 01:43:00;;;;;;;27.65;12.85;;;15.70;99.90;;;;;;5080301;28;20045;-64
2021/06/30 01:45:33;;;;;;;26.52;13.23;;;15.80;99.90;;;;;;5080284;28;20035;-64
2021/06/30 01:47:59;;;;;;;29.63;13.57;;;15.70;99.90;;;;;;5080922;28;20892;-65
2021/06/30 01:50:25;;;;;;;27.65;13.02;;;15.70;99.90;;;;;;5080478;28;20110;-64
2021/06/30 01:52:51;;;;;;;31.42;14.15;;;15.70;99.90;;;;;;5081084;28;20043;-64
2021/06/30 01:55:16;;;;;;;23.27;12.60;;;15.70;99.90;;;;;;5082361;28;20044;-64
2021/06/30 01:57:46;;;;;;;25.67;12.90;;;15.60;99.90;;;;;;5082552;28;20036;-64
2021/06/30 02:00:16;;;;;;;27.48;13.13;;;15.60;99.90;;;;;;5078322;28;20082;-64
2021/06/30 02:02:42;;;;;;;27.45;12.98;;;15.60;99.90;;;;;;5077839;28;20126;-64
2021/06/30 02:05:14;;;;;;;36.30;13.50;;;15.60;99.90;;;;;;5081627;28;20238;-64
2021/06/30 02:07:46;;;;;;;23.63;13.43;;;15.60;99.90;;;;;;5079949;28;20105;-64
2021/06/30 02:10:13;;;;;;;25.00;13.77;;;15.60;99.90;;;;;;5080106;28;20122;-64
2021/06/30 02:12:39;;;;;;;25.10;13.13;;;15.60;99.90;;;;;;5078635;28;20055;-64
2021/06/30 02:15:11;;;;;;;24.02;12.88;;;15.60;99.90;;;;;;5080904;28;20044;-64
2021/06/30 02:17:47;;;;;;;20.95;11.60;;;15.50;99.90;;;;;;5080111;28;20044;-64
2021/06/30 02:20:14;;;;;;;24.17;12.18;;;15.50;99.90;;;;;;5081124;28;20040;-64
2021/06/30 02:22:41;;;;;;;20.80;12.27;;;15.50;99.90;;;;;;5079771;28;20072;-64
2021/06/30 02:25:12;;;;;;;20.08;11.90;;;15.50;99.90;;;;;;5082126;28;20044;-64
2021/06/30 02:27:40;;;;;;;22.88;12.15;;;15.50;99.90;;;;;;5082959;28;20039;-64
2021/06/30 02:30:15;;;;;;;17.48;9.50;;;15.50;99.90;;;;;;5081268;28;20059;-64
2021/06/30 02:32:41;;;;;;;21.25;10.68;;;15.50;99.90;;;;;;5098575;28;20717;-64
2021/06/30 02:35:10;;;;;;;19.45;9.68;;;15.50;99.90;;;;;;5086110;28;20454;-64
2021/06/30 02:37:37;;;;;;;14.98;9.20;;;15.50;99.90;;;;;;5085477;28;20040;-64
2021/06/30 02:40:06;;;;;;;18.92;10.65;;;15.50;99.90;;;;;;5084124;28;20454;-64
2021/06/30 02:42:32;;;;;;;17.55;9.60;;;15.50;99.90;;;;;;5083627;28;20560;-64
2021/06/30 02:44:57;;;;;;;16.85;8.98;;;15.50;99.90;;;;;;5084254;28;20049;-64
2021/06/30 02:47:23;;;;;;;14.40;8.80;;;15.50;99.90;;;;;;5086810;28;20036;-64
2021/06/30 02:49:49;;;;;;;16.23;9.50;;;15.50;99.90;;;;;;5084719;28;20036;-64
2021/06/30 02:52:15;;;;;;;14.40;8.00;;;15.50;99.90;;;;;;5081769;28;20061;-64
2021/06/30 02:54:41;;;;;;;11.35;8.63;;;15.50;99.90;;;;;;5084510;28;20405;-64
2021/06/30 02:57:06;;;;;;;14.77;8.88;;;15.50;99.90;;;;;;5084132;28;20040;-64
2021/06/30 02:59:32;;;;;;;16.63;8.85;;;15.50;99.90;;;;;;5082130;28;20502;-64
2021/06/30 03:01:58;;;;;;;13.75;7.50;;;15.50;99.90;;;;;;5082416;28;20044;-64
2021/06/30 03:04:23;;;;;;;14.65;8.95;;;15.40;99.90;;;;;;5081594;28;20036;-64
2021/06/30 03:06:49;;;;;;;14.98;8.55;;;15.40;99.90;;;;;;5082675;28;20032;-64
2021/06/30 03:09:18;;;;;;;17.15;8.48;;;15.40;99.90;;;;;;5089953;28;20037;-64
2021/06/30 03:11:44;;;;;;;11.73;7.72;;;15.30;99.90;;;;;;5078917;28;20064;-64
2021/06/30 03:14:09;;;;;;;12.90;8.15;;;15.30;99.90;;;;;;5085005;28;20527;-64
2021/06/30 03:16:35;;;;;;;14.55;8.23;;;15.30;99.90;;;;;;5082913;28;20506;-64
2021/06/30 03:19:01;;;;;;;10.35;7.75;;;15.30;99.90;;;;;;5085490;28;20150;-64
2021/06/30 03:21:26;;;;;;;15.48;8.95;;;15.20;99.90;;;;;;5083167;28;20068;-64
2021/06/30 03:23:52;;;;;;;13.80;8.45;;;15.30;99.90;;;;;;5083957;28;20044;-64
2021/06/30 03:26:17;;;;;;;11.98;8.80;;;15.30;99.90;;;;;;5081983;28;20065;-64
2021/06/30 03:28:43;;;;;;;12.98;8.10;;;15.20;99.90;;;;;;5085925;28;20723;-64
2021/06/30 03:31:09;;;;;;;13.63;8.57;;;15.30;99.90;;;;;;5082564;28;20059;-64
2021/06/30 03:33:36;;;;;;;16.27;8.20;;;15.20;99.90;;;;;;5084719;28;20119;-64
2021/06/30 03:36:04;;;;;;;13.05;8.73;;;15.20;99.90;;;;;;5083728;28;20102;-64
2021/06/30 03:38:31;;;;;;;9.38;7.97;;;15.10;99.90;;;;;;5095658;28;20059;-64
2021/06/30 03:40:57;;;;;;;16.85;10.43;;;15.10;99.90;;;;;;5081960;28;20036;-64
2021/06/30 03:43:22;;;;;;;13.25;8.82;;;15.10;99.90;;;;;;5083615;28;20043;-63
2021/06/30 03:45:48;;;;;;;10.52;7.97;;;15.10;99.90;;;;;;5081474;28;20495;-64
2021/06/30 03:48:14;;;;;;;12.95;7.93;;;15.10;99.90;;;;;;5082284;28;20040;-64
2021/06/30 03:50:40;;;;;;;12.80;8.48;;;15.10;99.90;;;;;;5083638;28;20040;-64
2021/06/30 03:53:05;;;;;;;15.65;9.18;;;15.10;99.90;;;;;;5083464;28;20123;-64
2021/06/30 03:55:31;;;;;;;12.77;8.15;;;15.10;99.90;;;;;;5082655;28;20467;-64
2021/06/30 03:57:57;;;;;;;15.52;9.52;;;15.10;99.90;;;;;;5083784;28;20264;-64
2021/06/30 04:00:26;;;;;;;12.82;8.95;;;15.10;99.90;;;;;;5082355;28;20036;-64
2021/06/30 04:02:52;;;;;;;16.30;9.43;;;15.10;99.90;;;;;;5083141;28;20031;-64
2021/06/30 04:05:18;;;;;;;13.77;9.13;;;15.10;99.90;;;;;;5086117;28;20040;-64
2021/06/30 04:07:44;;;;;;;18.88;9.27;;;15.10;99.90;;;;;;5085709;28;20097;-64
2021/06/30 04:10:10;;;;;;;16.63;8.75;;;15.00;99.90;;;;;;5084476;28;20040;-63
2021/06/30 04:12:36;;;;;;;12.50;8.27;;;15.00;99.90;;;;;;5081920;28;20405;-64
2021/06/30 04:15:02;;;;;;;15.80;9.02;;;15.00;99.90;;;;;;5081619;28;21541;-64
2021/06/30 04:17:28;;;;;;;12.48;8.55;;;15.00;99.90;;;;;;5080811;28;20123;-63
2021/06/30 04:19:53;;;;;;;13.30;8.63;;;15.00;99.90;;;;;;5082410;28;20115;-63
2021/06/30 04:22:20;;;;;;;17.65;9.73;;;15.00;99.90;;;;;;5082972;28;20063;-64
2021/06/30 04:24:45;;;;;;;13.93;9.38;;;15.00;99.90;;;;;;5085160;28;20035;-64
2021/06/30 04:27:11;;;;;;;16.63;9.85;;;15.00;99.90;;;;;;5085762;28;20066;-64
2021/06/30 04:29:37;;;;;;;14.30;9.70;;;15.00;99.90;;;;;;5081394;28;20040;-64
2021/06/30 04:32:03;;;;;;;18.33;10.82;;;15.00;99.90;;;;;;5083019;28;20048;-64
2021/06/30 04:34:28;;;;;;;16.42;9.85;;;15.00;99.90;;;;;;5081420;28;20024;-63
2021/06/30 04:36:54;;;;;;;17.75;11.15;;;15.00;99.90;;;;;;5082106;28;20042;-64
2021/06/30 04:39:20;;;;;;;13.45;10.00;;;15.00;99.90;;;;;;5083575;28;20028;-64
2021/06/30 04:41:47;;;;;;;22.40;10.68;;;15.00;99.90;;;;;;5079084;28;20117;-64
2021/06/30 04:44:13;;;;;;;18.45;10.73;;;15.00;99.90;;;;;;5080496;28;20047;-64
2021/06/30 04:46:38;;;;;;;20.05;10.90;;;15.00;99.90;;;;;;5080430;28;20040;-64
2021/06/30 04:49:04;;;;;;;21.45;11.00;;;15.00;99.90;;;;;;5081661;28;20502;-63
2021/06/30 04:51:30;;;;;;;19.30;10.45;;;15.00;99.90;;;;;;5084349;28;20033;-64
2021/06/30 04:53:55;;;;;;;18.10;10.70;;;15.00;99.90;;;;;;5081390;28;20487;-64
2021/06/30 04:56:27;;;;;;;20.65;10.77;;;14.90;99.90;;;;;;5087900;28;20119;-64
2021/06/30 04:58:56;;;;;;;15.35;10.38;;;15.00;99.90;;;;;;5085888;28;20059;-64
2021/06/30 05:01:23;;;;;;;16.95;10.15;;;15.00;99.90;;;;;;5086761;28;20061;-63
2021/06/30 05:03:49;;;;;;;18.63;11.00;;;15.00;99.90;;;;;;5087544;28;20043;-64
2021/06/30 05:06:14;;;;;;;16.83;10.38;;;15.00;99.90;;;;;;5088647;28;20110;-64
2021/06/30 05:08:40;;;;;;;18.55;10.35;;;15.00;99.90;;;;;;5088496;28;20489;-64
2021/06/30 05:11:06;;;;;;;19.38;11.05;;;15.00;99.90;;;;;;5088316;28;20089;-63
2021/06/30 05:13:32;;;;;;;14.27;9.70;;;15.10;99.90;;;;;;5085908;28;20040;-64
2021/06/30 05:15:58;;;;;;;15.23;10.32;;;15.10;99.90;;;;;;5087518;28;20101;-64
2021/06/30 05:18:23;;;;;;;14.27;10.10;;;15.10;99.90;;;;;;5088600;28;20040;-64
2021/06/30 05:20:49;;;;;;;16.48;9.70;;;15.10;99.90;;;;;;5086292;28;20879;-63
2021/06/30 05:23:16;;;;;;;19.63;10.15;;;15.10;99.90;;;;;;5086278;28;20462;-64
2021/06/30 05:25:42;;;;;;;21.98;10.55;;;15.10;99.90;;;;;;5084834;28;20383;-64
2021/06/30 05:28:08;;;;;;;21.65;9.35;;;15.10;99.90;;;;;;5081864;28;20421;-64
2021/06/30 05:30:33;;;;;;;18.85;9.98;;;15.10;99.90;;;;;;5084878;28;20048;-64
2021/06/30 05:32:59;;;;;;;17.83;9.65;;;15.10;99.90;;;;;;5083033;28;20044;-64
2021/06/30 05:35:25;;;;;;;19.75;9.82;;;15.10;99.90;;;;;;5085772;28;20047;-64
2021/06/30 05:37:51;;;;;;;25.50;10.25;;;15.10;99.90;;;;;;5084665;28;20039;-64
2021/06/30 05:40:17;;;;;;;17.42;10.20;;;15.10;99.90;;;;;;5085991;28;20041;-64
2021/06/30 05:42:44;;;;;;;19.60;9.73;;;15.10;99.90;;;;;;5081856;28;20097;-63
2021/06/30 05:45:15;;;;;;;21.55;9.80;;;15.10;99.90;;;;;;5087049;28;20599;-63
2021/06/30 05:47:45;;;;;;;21.58;9.48;;;15.10;99.90;;;;;;5081789;28;20043;-63
2021/06/30 05:50:12;;;;;;;20.02;9.70;;;15.20;99.90;;;;;;5082375;28;20036;-63
2021/06/30 05:52:38;;;;;;;21.67;9.50;;;15.20;99.90;;;;;;5085867;28;20724;-63
2021/06/30 05:55:05;;;;;;;19.70;9.23;;;15.20;99.90;;;;;;5083062;28;20416;-63
2021/06/30 05:57:31;;;;;;;17.17;9.68;;;15.30;99.90;;;;;;5085188;28;20398;-63
2021/06/30 05:59:57;;;;;;;14.57;9.50;;;15.30;99.90;;;;;;5084940;28;20028;-63
2021/06/30 06:02:22;;;;;;;26.60;11.05;;;15.20;99.90;;;;;;5087339;28;20131;-63
2021/06/30 06:04:48;;;;;;;20.48;9.48;;;15.20;99.90;;;;;;5079323;28;20040;-63
2021/06/30 06:07:14;;;;;;;19.30;9.40;;;15.20;99.90;;;;;;5082499;28;20139;-63
2021/06/30 06:09:39;;;;;;;19.58;9.68;;;15.30;99.90;;;;;;5089414;28;20044;-63
2021/06/30 06:12:06;;;;;;;16.98;9.50;;;15.30;99.90;;;;;;5084499;28;20498;-63
2021/06/30 06:14:31;;;;;;;16.30;9.50;;;15.30;99.90;;;;;;5084591;28;20047;-63
2021/06/30 06:16:57;;;;;;;21.70;10.02;;;15.20;99.90;;;;;;5083456;28;20115;-63
2021/06/30 06:19:25;;;;;;;21.13;9.30;;;15.30;99.90;;;;;;5084728;28;20051;-63
2021/06/30 06:21:51;;;;;;;28.67;10.77;;;15.30;99.90;;;;;;5079573;28;20032;-62
2021/06/30 06:24:18;;;;;;;21.10;10.18;;;15.20;99.90;;;;;;5087206;28;20044;-63
2021/06/30 06:26:44;;;;;;;21.60;10.40;;;15.20;99.90;;;;;;5082475;28;20032;-63
2021/06/30 06:29:10;;;;;;;12.73;8.07;;;15.20;99.90;;;;;;5084487;28;20027;-63
2021/06/30 06:31:37;;;;;;;19.25;9.68;;;15.30;99.90;;;;;;5083990;28;20567;-63
2021/06/30 06:34:03;;;;;;;24.80;10.30;;;15.20;99.90;;;;;;5083953;28;20071;-63
2021/06/30 06:36:29;;;;;;;26.33;9.60;;;15.30;99.90;;;;;;5084920;28;20478;-63
2021/06/30 06:38:55;;;;;;;23.77;9.30;;;15.30;99.90;;;;;;5081687;28;20131;-63
2021/06/30 06:41:21;;;;;;;21.08;10.20;;;15.30;99.90;;;;;;5084334;28;20631;-63
2021/06/30 06:43:46;;;;;;;31.33;9.75;;;15.30;99.90;;;;;;5082545;28;20405;-63
2021/06/30 06:46:12;;;;;;;19.55;9.52;;;15.40;99.90;;;;;;5085749;28;20039;-63
2021/06/30 06:48:38;;;;;;;28.35;11.63;;;15.30;99.90;;;;;;5084296;28;20109;-63
2021/06/30 06:51:04;;;;;;;28.02;10.27;;;15.30;99.90;;;;;;5083268;28;20462;-63
2021/06/30 06:53:30;;;;;;;25.75;10.15;;;15.30;99.90;;;;;;5084452;28;20048;-63
2021/06/30 06:55:58;;;;;;;29.70;10.60;;;15.30;99.90;;;;;;5080288;28;20044;-63
2021/06/30 06:58:24;;;;;;;26.88;9.45;;;15.30;99.90;;;;;;5082382;28;20043;-63
2021/06/30 07:00:50;;;;;;;20.35;8.68;;;15.40;99.90;;;;;;5084938;28;20659;-63
2021/06/30 07:03:15;;;;;;;26.48;8.73;;;15.40;99.90;;;;;;5084686;28;20035;-63
2021/06/30 07:05:41;;;;;;;23.40;8.65;;;15.40;99.90;;;;;;5086723;28;21767;-63
2021/06/30 07:08:07;;;;;;;19.70;9.05;;;15.40;99.90;;;;;;5086623;28;20032;-63
2021/06/30 07:10:33;;;;;;;18.17;8.00;;;15.40;99.90;;;;;;5085144;28;20029;-63
2021/06/30 07:13:00;;;;;;;25.83;8.63;;;15.40;99.90;;;;;;5085154;28;20415;-63
2021/06/30 07:15:26;;;;;;;17.25;8.60;;;15.50;99.90;;;;;;5084100;28;20043;-63
2021/06/30 07:17:51;;;;;;;14.50;7.50;;;15.50;99.90;;;;;;5084894;28;20055;-63
2021/06/30 07:20:17;;;;;;;21.58;8.27;;;15.50;99.90;;;;;;5081403;28;20768;-63
2021/06/30 07:22:43;;;;;;;18.75;9.07;;;15.50;99.90;;;;;;5083745;28;20490;-63
2021/06/30 07:25:09;;;;;;;21.05;8.73;;;15.60;99.90;;;;;;5083691;28;20685;-63
2021/06/30 07:27:35;;;;;;;22.13;8.95;;;15.70;99.90;;;;;;5084569;28;20390;-63
2021/06/30 07:30:01;;;;;;;19.92;8.07;;;15.70;99.90;;;;;;5082380;28;20059;-63
2021/06/30 07:32:26;;;;;;;23.20;9.00;;;15.70;99.90;;;;;;5084209;28;20042;-63
2021/06/30 07:34:52;;;;;;;21.75;8.45;;;15.70;99.90;;;;;;5080529;28;20055;-63
2021/06/30 07:37:18;;;;;;;19.40;8.23;;;15.70;99.90;;;;;;5083061;28;20086;-63
2021/06/30 07:39:44;;;;;;;22.80;9.18;;;15.70;99.90;;;;;;5082186;28;20482;-63
2021/06/30 07:42:09;;;;;;;17.33;8.02;;;15.70;99.90;;;;;;5078462;28;20032;-63
2021/06/30 07:44:35;;;;;;;19.65;8.15;;;15.80;99.90;;;;;;5080158;28;20043;-63
2021/06/30 07:47:01;;;;;;;19.33;9.07;;;15.80;99.90;;;;;;5076310;28;20147;-63
2021/06/30 07:49:27;;;;;;;21.50;8.43;;;15.90;99.90;;;;;;5077342;28;20501;-63
2021/06/30 07:51:53;;;;;;;20.92;8.15;;;16.00;99.90;;;;;;5076137;28;20051;-63
2021/06/30 07:54:19;;;;;;;22.42;7.90;;;16.00;99.90;;;;;;5081366;28;20157;-63
2021/06/30 07:56:45;;;;;;;22.77;8.20;;;16.00;99.90;;;;;;5078575;28;20039;-63
2021/06/30 07:59:12;;;;;;;17.65;8.13;;;16.10;99.90;;;;;;5080448;28;20047;-63
2021/06/30 08:01:39;;;;;;;20.50;7.63;;;16.20;99.90;;;;;;5081015;28;20733;-63
2021/06/30 08:04:06;;;;;;;16.02;7.18;;;16.10;99.90;;;;;;5080788;28;20052;-63
2021/06/30 08:06:34;;;;;;;18.42;7.85;;;16.20;99.90;;;;;;5080090;28;20039;-63
2021/06/30 08:08:59;;;;;;;20.05;7.63;;;16.30;99.90;;;;;;5079225;28;20071;-63
2021/06/30 08:11:25;;;;;;;18.00;7.85;;;16.30;99.90;;;;;;5077441;28;20044;-63
2021/06/30 08:13:53;;;;;;;14.55;7.72;;;16.40;99.90;;;;;;5077231;28;20032;-63
2021/06/30 08:16:20;;;;;;;17.15;7.85;;;16.40;99.90;;;;;;5076358;28;20090;-63
2021/06/30 08:18:46;;;;;;;17.05;7.35;;;16.40;99.90;;;;;;5078504;28;20060;-63
2021/06/30 08:21:13;;;;;;;20.45;7.53;;;16.50;99.90;;;;;;5079578;28;20044;-63
2021/06/30 08:23:40;;;;;;;21.15;8.02;;;16.50;99.90;;;;;;5074437;28;20085;-64
2021/06/30 08:26:08;;;;;;;17.33;7.68;;;16.50;99.90;;;;;;5080987;28;20033;-63
2021/06/30 08:28:35;;;;;;;14.23;6.97;;;16.50;99.90;;;;;;5082597;28;20397;-64
2021/06/30 08:31:00;;;;;;;16.83;7.15;;;16.50;99.90;;;;;;5077611;28;20070;-63
2021/06/30 08:33:26;;;;;;;17.52;7.85;;;16.50;99.90;;;;;;5077854;28;20044;-63
2021/06/30 08:35:54;;;;;;;13.98;7.07;;;16.50;99.90;;;;;;5078944;28;20036;-63
2021/06/30 08:38:20;;;;;;;21.90;8.20;;;16.50;99.90;;;;;;5078341;28;20043;-63
2021/06/30 08:40:46;;;;;;;19.90;7.90;;;16.60;99.90;;;;;;5081812;28;20036;-63
2021/06/30 08:43:12;;;;;;;17.05;7.40;;;16.60;99.90;;;;;;5083651;28;20031;-63
2021/06/30 08:45:37;;;;;;;13.45;6.55;;;16.70;99.90;;;;;;5083272;28;20105;-63
2021/06/30 08:48:05;;;;;;;12.65;5.70;;;16.70;99.90;;;;;;5079674;28;20450;-63
2021/06/30 08:50:34;;;;;;;15.18;6.63;;;16.80;99.90;;;;;;5080045;28;20039;-63
2021/06/30 08:53:01;;;;;;;13.68;6.22;;;16.80;99.90;;;;;;5083383;28;20040;-64
2021/06/30 08:55:27;;;;;;;13.70;5.63;;;16.80;99.90;;;;;;5080904;28;21104;-63
2021/06/30 08:57:52;;;;;;;9.35;6.13;;;16.90;99.90;;;;;;5081761;28;20093;-63
2021/06/30 09:00:19;;;;;;;13.32;5.95;;;16.90;99.90;;;;;;5082131;28;20040;-64
2021/06/30 09:02:47;;;;;;;9.30;5.65;;;16.80;99.90;;;;;;5082225;28;20055;-63
2021/06/30 09:07:57;;;;;;;14.25;5.95;;;16.80;99.90;;;;;;5080007;28;20064;-64
2021/06/30 09:10:37;;;;;;;10.70;5.10;;;16.80;99.90;;;;;;5079280;28;20052;-63
2021/06/30 09:13:06;;;;;;;10.63;5.43;;;16.70;99.90;;;;;;5079993;28;20627;-63
2021/06/30 09:15:37;;;;;;;48.20;6.88;;;16.70;99.90;;;;;;5080501;28;20059;-63
2021/06/30 09:21:18;;;;;;;8.93;4.30;;;16.80;99.90;;;;;;5081998;28;20520;-63
2021/06/30 09:23:59;;;;;;;13.82;4.95;;;16.80;99.90;;;;;;5079852;28;20478;-63
2021/06/30 09:26:27;;;;;;;11.80;5.35;;;16.70;99.90;;;;;;5080149;28;20131;-63
2021/06/30 09:29:06;;;;;;;10.38;4.47;;;16.90;99.90;;;;;;5082280;28;20046;-63
2021/06/30 09:31:33;;;;;;;8.98;4.20;;;16.90;99.90;;;;;;5079682;28;20047;-63
2021/06/30 09:33:59;;;;;;;9.55;3.35;;;17.00;99.90;;;;;;5078610;28;20048;-64
2021/06/30 09:36:30;;;;;;;8.20;3.78;;;17.10;99.90;;;;;;5081250;28;20381;-63
2021/06/30 09:39:09;;;;;;;10.60;4.47;;;17.20;99.90;;;;;;5081977;28;20123;-63
2021/06/30 09:41:35;;;;;;;9.75;3.60;;;17.30;99.90;;;;;;5080865;28;20082;-63
2021/06/30 09:44:18;;;;;;;7.15;3.25;;;17.30;99.90;;;;;;5078937;28;20417;-63
2021/06/30 09:46:45;;;;;;;7.43;2.92;;;17.20;99.90;;;;;;5081272;28;20040;-63
2021/06/30 09:49:13;;;;;;;8.88;3.55;;;17.10;99.90;;;;;;5082686;28;20084;-64
2021/06/30 09:51:41;;;;;;;8.48;3.10;;;17.20;99.90;;;;;;5079961;28;20847;-63
2021/06/30 09:54:09;;;;;;;9.10;3.50;;;17.10;99.90;;;;;;5080616;28;20044;-64
2021/06/30 09:56:40;;;;;;;8.10;3.85;;;17.10;99.90;;;;;;5082194;28;20127;-63
2021/06/30 09:59:09;;;;;;;11.77;4.20;;;17.20;99.90;;;;;;5083190;28;20092;-64
2021/06/30 10:01:35;;;;;;;5.10;3.08;;;17.20;99.90;;;;;;5081879;28;20032;-64
2021/06/30 10:04:01;;;;;;;5.55;2.75;;;17.20;99.90;;;;;;5078918;28;20048;-63
2021/06/30 10:06:32;;;;;;;6.65;3.33;;;17.20;99.90;;;;;;5078626;28;20043;-64
2021/06/30 10:09:04;;;;;;;5.05;2.83;;;17.20;99.90;;;;;;5077412;28;20040;-64
2021/06/30 10:11:31;;;;;;;7.53;2.58;;;17.40;99.90;;;;;;5081556;28;20109;-64
2021/06/30 10:13:58;;;;;;;5.38;2.80;;;17.40;99.90;;;;;;5080019;28;20044;-64
2021/06/30 10:16:26;;;;;;;4.82;2.75;;;17.50;99.90;;;;;;5079545;28;20085;-64
2021/06/30 10:18:54;;;;;;;7.70;2.30;;;17.50;99.90;;;;;;5080015;28;20470;-64
2021/06/30 10:21:24;;;;;;;4.22;2.42;;;17.60;99.90;;;;;;5078738;28;20036;-63
2021/06/30 10:23:50;;;;;;;5.10;2.95;;;17.50;99.90;;;;;;5078354;28;20113;-63
2021/06/30 10:26:19;;;;;;;5.03;2.70;;;17.60;99.90;;;;;;5077839;28;20174;-63
2021/06/30 10:28:49;;;;;;;8.18;2.50;;;17.60;99.90;;;;;;5078726;28;20479;-64
2021/06/30 10:31:16;;;;;;;3.00;2.20;;;17.70;99.90;;;;;;5079849;28;20044;-64
2021/06/30 10:33:41;;;;;;;4.15;1.75;;;17.80;99.90;;;;;;5078601;28;20040;-64
2021/06/30 10:36:08;;;;;;;4.35;2.13;;;17.80;99.90;;;;;;5076100;28;20043;-64
2021/06/30 10:38:54;;;;;;;4.90;2.30;;;17.80;99.90;;;;;;5078585;28;20478;-64
2021/06/30 10:41:39;;;;;;;;;;;17.90;99.90;;;;;;5079048;28;20051;-63
2021/06/30 10:44:13;;;;;;;4.78;2.20;;;17.80;99.90;;;;;;5080131;28;19920;-64
2021/06/30 10:46:39;;;;;;;3.90;2.10;;;17.90;99.90;;;;;;5097098;28;20408;-64
2021/06/30 10:49:13;;;;;;;7.63;2.40;;;17.90;99.90;;;;;;5076009;28;20046;-64
2021/06/30 10:51:44;;;;;;;6.38;2.60;;;17.80;99.90;;;;;;5079168;28;20037;-64
2021/06/30 10:54:32;;;;;;;10.88;1.98;;;17.80;99.90;;;;;;5093289;28;20032;-63
2021/06/30 10:57:20;;;;;;;5.55;2.00;;;17.80;99.90;;;;;;5078542;28;20035;-63
2021/06/30 11:00:00;;;;;;;4.35;2.60;;;17.70;99.90;;;;;;5077132;28;20044;-64
2021/06/30 11:02:31;;;;;;;4.70;2.90;;;17.70;99.90;;;;;;5078213;28;20036;-64
2021/06/30 11:05:13;;;;;;;3.72;1.92;;;17.60;99.90;;;;;;5078249;28;20044;-64
2021/06/30 11:07:43;;;;;;;5.88;2.67;;;17.60;99.90;;;;;;5083764;28;20062;-64
2021/06/30 11:10:16;;;;;;;6.15;2.65;;;17.50;99.90;;;;;;5077313;28;20044;-64
2021/06/30 11:12:58;;;;;;;5.30;2.22;;;17.50;99.90;;;;;;5079464;28;20482;-64
2021/06/30 11:15:36;;;;;;;5.13;2.13;;;17.40;99.90;;;;;;5082166;28;20036;-64
2021/06/30 11:18:40;;;;;;;3.78;1.73;;;17.40;99.90;;;;;;5082720;28;20066;-64
2021/06/30 11:21:08;;;;;;;3.42;1.52;;;17.40;99.90;;;;;;5079599;28;20585;-64
2021/06/30 11:23:40;;;;;;;3.00;1.92;;;17.30;99.90;;;;;;5079147;28;20044;-64
2021/06/30 11:26:36;;;;;;;7.07;2.55;;;17.30;99.90;;;;;;5078860;28;20040;-64
2021/06/30 11:29:44;;;;;;;4.05;2.63;;;17.30;99.90;;;;;;5079393;28;20402;-64
2021/06/30 11:32:30;;;;;;;5.53;2.88;;;17.20;99.90;;;;;;5082452;28;20077;-64
2021/06/30 11:35:19;;;;;;;4.80;2.35;;;17.10;99.90;;;;;;5081200;28;20505;-64
2021/06/30 11:37:47;;;;;;;7.20;2.83;;;17.10;99.90;;;;;;5076536;28;20101;-63
2021/06/30 11:40:22;;;;;;;10.98;3.88;;;17.00;99.90;;;;;;5075476;28;20433;-63
2021/06/30 11:42:50;;;;;;;;;;;17.00;99.90;;;;;;5080399;28;20067;-63
2021/06/30 11:45:33;;;;;;;6.05;3.20;;;17.00;99.90;;;;;;5077642;28;19952;-63
2021/06/30 11:48:01;;;;;;;7.00;4.47;;;17.00;99.90;;;;;;5075941;28;20044;-63
2021/06/30 11:50:54;;;;;;;9.32;4.47;;;17.00;99.90;;;;;;5079825;28;20150;-63
2021/06/30 11:53:38;;;;;;;7.13;4.25;;;17.00;99.90;;;;;;5077265;28;20143;-63
2021/06/30 11:56:06;;;;;;;8.68;4.22;;;17.00;99.90;;;;;;5078145;28;20074;-63
2021/06/30 11:58:46;;;;;;;9.40;3.42;;;17.10;99.90;;;;;;5079854;28;20045;-63
2021/06/30 12:01:32;;;;;;;10.63;4.68;;;17.10;99.90;;;;;;5079545;28;20044;-63
2021/06/30 12:04:26;;;;;;;7.13;4.22;;;17.10;99.90;;;;;;5093441;28;20051;-63
2021/06/30 12:06:58;;;;;;;9.63;4.30;;;17.10;99.90;;;;;;5077501;28;20142;-63
2021/06/30 12:09:27;;;;;;;11.20;4.60;;;17.10;99.90;;;;;;5078624;28;20044;-63
2021/06/30 12:12:05;;;;;;;6.28;3.90;;;17.10;99.90;;;;;;5077683;28;20059;-63
2021/06/30 12:14:43;;;;;;;7.20;4.38;;;17.10;99.90;;;;;;5083126;28;20032;-63
2021/06/30 12:17:12;;;;;;;8.68;5.03;;;17.00;99.90;;;;;;5077343;28;20071;-63
2021/06/30 12:19:48;;;;;;;9.43;4.65;;;17.00;99.90;;;;;;5077554;28;20049;-63
2021/06/30 12:22:32;;;;;;;7.75;4.22;;;17.00;99.90;;;;;;5079109;28;20127;-63
2021/06/30 12:25:12;;;;;;;12.55;4.30;;;16.90;99.90;;;;;;5074999;28;20044;-63
2021/06/30 12:27:46;;;;;;;10.25;4.47;;;16.90;99.90;;;;;;5077022;28;20075;-64
2021/06/30 12:30:14;;;;;;;7.30;4.18;;;16.80;99.90;;;;;;5076749;28;20456;-63
2021/06/30 12:32:48;;;;;;;7.30;3.38;;;16.80;99.90;;;;;;5076912;28;20046;-63
2021/06/30 12:35:20;;;;;;;9.20;4.15;;;16.80;99.90;;;;;;5080891;28;20040;-63
2021/06/30 12:38:04;;;;;;;6.15;3.92;;;16.80;99.90;;;;;;5076106;28;20036;-63
2021/06/30 12:40:32;;;;;;;6.65;4.72;;;16.70;99.90;;;;;;5075634;28;20494;-63
2021/06/30 12:43:04;;;;;;;8.38;4.50;;;16.70;99.90;;;;;;5078100;28;20054;-63
2021/06/30 12:45:41;;;;;;;11.57;4.57;;;16.70;99.90;;;;;;5082797;28;20043;-63
2021/06/30 12:48:13;;;;;;;7.82;4.95;;;16.70;99.90;;;;;;5077817;28;20051;-63
2021/06/30 12:50:45;;;;;;;9.05;5.03;;;16.80;99.90;;;;;;5076263;28;20501;-63